createdAt,value
2018-07-28T00:05:15.899Z,90.00
2018-07-28T00:07:47.904Z,90.00
2018-07-28T00:10:19.664Z,90.00
2018-07-28T00:15:23.330Z,90.20
2018-07-28T00:17:55.155Z,90.20
2018-07-28T00:20:27.061Z,90.30
2018-07-28T00:28:05.306Z,90.40
2018-07-28T00:30:37.097Z,90.50
2018-07-28T00:35:40.286Z,90.50
2018-07-28T00:38:12.145Z,90.60
2018-07-28T00:43:16.208Z,90.60
2018-07-28T00:45:48.253Z,90.60
2018-07-28T00:48:19.952Z,90.50
2018-07-28T00:50:51.804Z,90.60
2018-07-28T00:53:24.838Z,90.80
2018-07-28T00:58:28.752Z,90.70
2018-07-28T01:01:00.441Z,90.80
2018-07-28T01:03:32.432Z,90.70
2018-07-28T01:06:04.389Z,90.90
2018-07-28T01:08:36.128Z,90.90
2018-07-28T01:11:08.073Z,90.80
2018-07-28T01:16:11.217Z,90.80
2018-07-28T01:18:43.634Z,90.90
2018-07-28T01:21:16.379Z,91.10
2018-07-28T01:23:48.234Z,91.10
2018-07-28T01:26:20.009Z,91.10
2018-07-28T01:28:55.764Z,91.00
2018-07-28T01:31:28.571Z,91.00
2018-07-28T01:36:31.454Z,91.10
2018-07-28T01:39:03.493Z,91.00
2018-07-28T01:41:35.382Z,90.90
2018-07-28T01:51:40.934Z,90.90
2018-07-28T01:54:12.855Z,90.80
2018-07-28T01:56:45.162Z,90.70
2018-07-28T01:59:17.253Z,90.70
2018-07-28T02:01:48.990Z,90.80
2018-07-28T02:04:20.626Z,91.10
2018-07-28T02:06:52.580Z,91.30
2018-07-28T02:09:24.420Z,91.50
2018-07-28T02:11:56.285Z,91.60
2018-07-28T02:14:28.887Z,91.40
2018-07-28T02:17:00.755Z,91.20
2018-07-28T02:22:04.046Z,91.10
2018-07-28T02:24:36.682Z,91.10
2018-07-28T02:34:43.404Z,90.80
2018-07-28T02:37:15.387Z,90.70
2018-07-28T02:39:47.678Z,90.60
2018-07-28T02:42:19.467Z,90.60
2018-07-28T02:44:51.337Z,90.80
2018-07-28T02:47:24.033Z,91.00
2018-07-28T02:49:56.363Z,91.10
2018-07-28T02:54:59.402Z,91.30
2018-07-28T03:00:04.129Z,90.90
2018-07-28T03:02:35.975Z,90.40
2018-07-28T03:05:09.027Z,90.40
2018-07-28T03:10:13.023Z,90.50
2018-07-28T03:12:44.852Z,90.70
2018-07-28T03:15:35.031Z,91.00
2018-07-28T03:18:08.504Z,91.10
2018-07-28T03:20:40.276Z,90.90
2018-07-28T03:23:11.914Z,90.70
2018-07-28T03:25:44.470Z,90.70
2018-07-28T03:28:16.483Z,90.70
2018-07-28T03:30:48.799Z,91.00
2018-07-28T03:33:20.560Z,90.20
2018-07-28T03:35:52.898Z,90.60
2018-07-28T03:40:55.956Z,90.80
2018-07-28T03:43:30.895Z,91.90
2018-07-28T03:48:34.853Z,91.20
2018-07-28T03:53:38.226Z,91.10
2018-07-28T04:01:12.526Z,91.60
2018-07-28T04:11:17.745Z,91.30
2018-07-28T04:13:49.499Z,91.40
2018-07-28T04:16:21.565Z,91.40
2018-07-28T04:18:53.509Z,91.40
2018-07-28T04:23:56.382Z,91.10
2018-07-28T04:26:27.813Z,90.90
2018-07-28T04:31:30.635Z,90.50
2018-07-28T04:34:02.718Z,90.40
2018-07-28T04:36:35.375Z,90.40
2018-07-28T04:39:11.100Z,90.50
2018-07-28T04:41:43.759Z,90.60
2018-07-28T04:46:46.733Z,90.90
2018-07-28T04:49:18.949Z,90.50
2018-07-28T04:51:50.905Z,90.30
2018-07-28T04:54:23.113Z,90.10
2018-07-28T04:56:55.088Z,90.20
2018-07-28T04:59:27.378Z,89.90
2018-07-28T05:01:59.506Z,88.50
2018-07-28T05:07:03.550Z,86.70
2018-07-28T05:12:07.064Z,86.90
2018-07-28T05:14:38.617Z,87.50
2018-07-28T05:17:10.357Z,88.30
2018-07-28T05:19:42.577Z,87.60
2018-07-28T05:22:14.671Z,87.70
2018-07-28T05:24:46.615Z,87.50
2018-07-28T05:27:18.832Z,88.00
2018-07-28T05:29:50.275Z,88.00
2018-07-28T05:32:23.398Z,87.00
2018-07-28T05:34:55.685Z,86.40
2018-07-28T05:37:28.441Z,86.30
2018-07-28T05:40:00.506Z,86.30
2018-07-28T05:42:32.911Z,86.50
2018-07-28T05:45:04.446Z,86.50
2018-07-28T05:47:36.743Z,86.10
2018-07-28T05:50:10.316Z,86.20
2018-07-28T05:52:42.528Z,86.20
2018-07-28T05:55:14.385Z,86.30
2018-07-28T05:57:46.596Z,87.20
2018-07-28T06:00:18.422Z,86.60
2018-07-28T06:02:50.699Z,85.90
2018-07-28T06:05:23.046Z,85.70
2018-07-28T06:07:55.411Z,85.40
2018-07-28T06:10:27.851Z,85.10
2018-07-28T06:13:00.102Z,85.00
2018-07-28T06:15:32.396Z,82.40
2018-07-28T06:18:04.802Z,81.80
2018-07-28T06:20:37.134Z,81.20
2018-07-28T06:23:09.518Z,80.80
2018-07-28T06:25:41.876Z,80.90
2018-07-28T06:28:14.284Z,80.90
2018-07-28T06:30:46.547Z,80.30
2018-07-28T06:33:18.284Z,80.50
2018-07-28T06:35:50.318Z,80.20
2018-07-28T06:38:22.811Z,79.60
2018-07-28T06:40:54.863Z,78.00
2018-07-28T06:43:26.864Z,77.00
2018-07-28T06:45:59.197Z,77.30
2018-07-28T06:48:31.193Z,77.80
2018-07-28T06:53:35.004Z,77.30
2018-07-28T06:58:39.839Z,77.10
2018-07-28T07:01:12.277Z,76.30
2018-07-28T07:03:44.012Z,75.80
2018-07-28T07:06:16.255Z,75.10
2018-07-28T07:08:48.617Z,74.90
2018-07-28T07:11:20.820Z,74.00
2018-07-28T07:16:26.222Z,72.60
2018-07-28T07:18:57.971Z,72.70
2018-07-28T07:21:30.416Z,72.90
2018-07-28T07:24:02.544Z,71.50
2018-07-28T07:26:34.947Z,70.70
2018-07-28T07:29:07.820Z,71.90
2018-07-28T07:31:40.025Z,70.50
2018-07-28T07:36:44.663Z,68.80
2018-07-28T07:41:49.072Z,66.90
2018-07-28T07:44:21.095Z,65.30
2018-07-28T07:46:53.933Z,65.50
2018-07-28T07:49:25.608Z,66.30
2018-07-28T07:51:57.667Z,64.70
2018-07-28T07:54:29.775Z,65.50
2018-07-28T07:57:02.147Z,65.00
2018-07-28T08:02:05.903Z,64.10
2018-07-28T08:07:09.758Z,63.30
2018-07-28T08:09:41.900Z,63.10
2018-07-28T08:14:46.502Z,63.80
2018-07-28T08:17:18.899Z,63.10
2018-07-28T08:19:51.104Z,63.80
2018-07-28T08:24:55.616Z,62.90
2018-07-28T08:27:28.089Z,64.80
2018-07-28T08:30:01.048Z,64.60
2018-07-28T08:32:33.257Z,62.60
2018-07-28T08:35:06.739Z,62.40
2018-07-28T08:37:39.556Z,61.70
2018-07-28T08:40:12.765Z,60.70
2018-07-28T08:42:45.013Z,60.60
2018-07-28T08:50:20.745Z,59.90
2018-07-28T08:52:52.981Z,61.20
2018-07-28T08:55:25.127Z,59.30
2018-07-28T08:57:57.503Z,58.90
2018-07-28T09:00:29.450Z,58.50
2018-07-28T09:03:01.690Z,58.50
2018-07-28T09:05:33.737Z,57.90
2018-07-28T09:08:06.037Z,57.20
2018-07-28T09:10:38.259Z,58.60
2018-07-28T09:13:10.748Z,56.60
2018-07-28T09:18:14.421Z,55.40
2018-07-28T09:20:46.966Z,56.00
2018-07-28T09:23:19.711Z,57.40
2018-07-28T09:25:52.045Z,55.00
2018-07-28T09:28:24.207Z,57.40
2018-07-28T09:30:56.284Z,56.30
2018-07-28T09:33:28.775Z,56.20
2018-07-28T09:36:01.455Z,55.00
2018-07-28T09:38:33.902Z,56.30
2018-07-28T09:41:06.204Z,54.60
2018-07-28T09:43:38.268Z,54.00
2018-07-28T09:46:10.468Z,52.80
2018-07-28T09:48:42.917Z,54.20
2018-07-28T09:51:15.174Z,54.70
2018-07-28T09:53:47.976Z,53.80
2018-07-28T09:56:20.731Z,53.30
2018-07-28T09:58:53.044Z,53.30
2018-07-28T10:01:25.411Z,53.80
2018-07-28T10:03:58.070Z,54.40
2018-07-28T10:06:30.645Z,52.80
2018-07-28T10:11:34.373Z,51.90
2018-07-28T10:14:06.820Z,52.70
2018-07-28T10:16:38.382Z,52.50
2018-07-28T10:19:10.386Z,51.50
2018-07-28T10:21:42.819Z,51.10
2018-07-28T10:24:14.942Z,51.00
2018-07-28T10:29:47.596Z,51.70
2018-07-28T10:32:19.640Z,51.70
2018-07-28T10:34:51.843Z,49.40
2018-07-28T10:37:24.361Z,49.80
2018-07-28T10:39:56.645Z,50.60
2018-07-28T10:42:28.877Z,50.70
2018-07-28T10:45:01.780Z,47.10
2018-07-28T10:47:33.755Z,49.20
2018-07-28T10:50:05.848Z,49.70
2018-07-28T10:52:38.198Z,53.50
2018-07-28T10:55:10.528Z,51.30
2018-07-28T10:57:42.543Z,49.20
2018-07-28T11:00:14.556Z,50.60
2018-07-28T11:02:47.190Z,51.30
2018-07-28T11:05:19.913Z,49.50
2018-07-28T11:07:53.459Z,47.30
2018-07-28T11:10:25.842Z,47.50
2018-07-28T11:12:58.202Z,49.20
2018-07-28T11:15:30.396Z,52.60
2018-07-28T11:20:34.702Z,49.20
2018-07-28T11:23:07.614Z,50.50
2018-07-28T11:25:39.783Z,49.10
2018-07-28T11:28:12.397Z,50.60
2018-07-28T11:30:44.766Z,47.90
2018-07-28T11:33:32.963Z,49.40
2018-07-28T11:36:21.153Z,48.10
2018-07-28T11:39:09.616Z,49.50
2018-07-28T11:41:57.453Z,47.20
2018-07-28T11:44:45.705Z,48.50
2018-07-28T11:47:18.183Z,47.00
2018-07-28T11:49:51.475Z,46.70
2018-07-28T11:54:55.569Z,47.40
2018-07-28T12:00:00.195Z,50.20
2018-07-28T12:02:33.422Z,47.40
2018-07-28T12:05:05.951Z,46.10
2018-07-28T12:07:38.397Z,49.40
2018-07-28T12:10:11.340Z,47.00
2018-07-28T12:12:43.491Z,48.00
2018-07-28T12:15:17.987Z,47.00
2018-07-28T12:17:50.389Z,45.30
2018-07-28T12:20:22.639Z,47.20
2018-07-28T12:22:54.360Z,47.00
2018-07-28T12:25:26.588Z,47.50
2018-07-28T12:27:58.744Z,46.80
2018-07-28T12:30:31.488Z,47.00
2018-07-28T12:33:03.821Z,47.00
2018-07-28T12:35:35.757Z,45.90
2018-07-28T12:38:07.549Z,44.50
2018-07-28T12:40:39.598Z,46.90
2018-07-28T12:43:11.580Z,48.00
2018-07-28T12:45:43.582Z,47.90
2018-07-28T12:48:15.726Z,49.30
2018-07-28T12:53:19.585Z,51.20
2018-07-28T12:55:52.965Z,51.50
2018-07-28T13:00:56.831Z,47.60
2018-07-28T13:03:29.393Z,47.30
2018-07-28T13:06:01.437Z,48.00
2018-07-28T13:08:35.105Z,47.30
2018-07-28T13:11:07.607Z,48.10
2018-07-28T13:13:39.629Z,49.20
2018-07-28T13:16:12.165Z,49.50
2018-07-28T13:18:44.627Z,51.00
2018-07-28T13:21:16.592Z,52.20
2018-07-28T13:23:49.163Z,52.70
2018-07-28T13:26:21.707Z,53.50
2018-07-28T13:28:53.882Z,53.20
2018-07-28T13:31:25.918Z,53.80
2018-07-28T13:33:58.567Z,52.90
2018-07-28T13:36:30.766Z,53.30
2018-07-28T13:39:02.986Z,53.90
2018-07-28T13:41:36.488Z,54.00
2018-07-28T13:44:08.650Z,54.70
2018-07-28T13:51:44.340Z,55.00
2018-07-28T13:54:16.619Z,55.40
2018-07-28T13:56:49.162Z,53.20
2018-07-28T13:59:21.361Z,53.50
2018-07-28T14:01:53.340Z,54.10
2018-07-28T14:06:58.648Z,54.20
2018-07-28T14:12:02.715Z,54.00
2018-07-28T14:17:07.203Z,55.30
2018-07-28T14:19:40.384Z,55.50
2018-07-28T14:22:12.343Z,55.30
2018-07-28T14:24:44.724Z,55.00
2018-07-28T14:27:16.787Z,55.50
2018-07-28T14:29:48.955Z,55.40
2018-07-28T14:32:21.334Z,55.30
2018-07-28T14:34:54.949Z,55.20
2018-07-28T14:37:28.557Z,55.90
2018-07-28T14:42:32.450Z,55.90
2018-07-28T14:45:06.426Z,56.10
2018-07-28T14:47:39.455Z,56.30
2018-07-28T14:50:11.885Z,57.40
2018-07-28T14:52:43.864Z,57.00
2018-07-28T14:55:16.017Z,57.20
2018-07-28T14:57:48.417Z,57.50
2018-07-28T15:00:20.805Z,57.50
2018-07-28T15:05:26.036Z,57.60
2018-07-28T15:07:58.257Z,56.90
2018-07-28T15:10:30.607Z,57.60
2018-07-28T15:13:02.831Z,56.30
2018-07-28T15:18:06.737Z,56.30
2018-07-28T15:20:39.065Z,56.10
2018-07-28T15:23:11.245Z,56.40
2018-07-28T15:25:43.595Z,57.90
2018-07-28T15:28:16.350Z,58.50
2018-07-28T15:33:20.711Z,58.70
2018-07-28T15:35:52.967Z,58.80
2018-07-28T15:38:25.684Z,59.10
2018-07-28T15:40:59.137Z,59.60
2018-07-28T15:43:31.209Z,59.10
2018-07-28T15:46:03.338Z,59.20
2018-07-28T15:48:36.368Z,59.60
2018-07-28T15:51:09.137Z,59.60
2018-07-28T15:53:41.795Z,59.90
2018-07-28T15:56:14.280Z,59.60
2018-07-28T15:58:47.057Z,59.90
2018-07-28T16:01:19.804Z,59.60
2018-07-28T16:03:52.034Z,60.20
2018-07-28T16:06:25.139Z,60.40
2018-07-28T16:08:57.998Z,60.50
2018-07-28T16:11:30.546Z,60.80
2018-07-28T16:14:03.139Z,61.30
2018-07-28T16:16:35.363Z,61.80
2018-07-28T16:19:08.062Z,62.10
2018-07-28T16:21:40.832Z,62.00
2018-07-28T16:24:13.141Z,61.50
2018-07-28T16:26:45.979Z,61.50
2018-07-28T16:29:19.389Z,61.60
2018-07-28T16:31:52.007Z,61.50
2018-07-28T16:34:25.243Z,61.50
2018-07-28T16:36:58.555Z,61.60
2018-07-28T16:39:31.130Z,61.80
2018-07-28T16:42:03.282Z,62.40
2018-07-28T16:44:35.691Z,62.50
2018-07-28T16:47:08.739Z,62.80
2018-07-28T16:49:41.392Z,63.00
2018-07-28T16:52:14.287Z,62.80
2018-07-28T16:54:46.799Z,62.80
2018-07-28T16:59:50.989Z,63.00
2018-07-28T17:02:23.476Z,63.20
2018-07-28T17:04:56.108Z,63.40
2018-07-28T17:07:28.460Z,63.20
2018-07-28T17:10:01.091Z,63.10
2018-07-28T17:12:33.573Z,62.60
2018-07-28T17:15:06.139Z,63.00
2018-07-28T17:17:39.129Z,63.40
2018-07-28T17:20:11.962Z,63.70
2018-07-28T17:22:44.663Z,63.60
2018-07-28T17:27:49.372Z,64.60
2018-07-28T17:30:25.511Z,65.30
2018-07-28T17:32:58.283Z,65.80
2018-07-28T17:35:30.946Z,65.70
2018-07-28T17:38:03.451Z,66.50
2018-07-28T17:40:36.261Z,66.60
2018-07-28T17:43:08.452Z,66.90
2018-07-28T17:45:40.933Z,68.10
2018-07-28T17:48:13.604Z,67.70
2018-07-28T17:50:46.296Z,68.80
2018-07-28T17:53:18.915Z,68.90
2018-07-28T17:58:23.007Z,69.40
2018-07-28T18:00:55.686Z,69.90
2018-07-28T18:03:27.692Z,69.90
2018-07-28T18:06:00.364Z,70.30
2018-07-28T18:08:32.913Z,70.50
2018-07-28T18:11:05.654Z,70.90
2018-07-28T18:13:38.165Z,71.50
2018-07-28T18:16:10.564Z,72.30
2018-07-28T18:18:44.544Z,72.70
2018-07-28T18:21:16.856Z,73.00
2018-07-28T18:23:50.194Z,73.00
2018-07-28T18:26:22.502Z,73.10
2018-07-28T18:31:26.869Z,72.80
2018-07-28T18:33:59.382Z,73.00
2018-07-28T18:36:31.829Z,72.90
2018-07-28T18:39:05.663Z,72.60
2018-07-28T18:41:39.049Z,72.90
2018-07-28T18:44:12.142Z,72.30
2018-07-28T18:46:45.085Z,72.70
2018-07-28T18:49:18.255Z,72.60
2018-07-28T18:54:23.328Z,72.80
2018-07-28T18:56:56.504Z,72.60
2018-07-28T18:59:29.584Z,72.70
2018-07-28T19:02:02.589Z,73.00
2018-07-28T19:04:35.447Z,73.50
2018-07-28T19:07:08.134Z,74.90
2018-07-28T19:09:45.493Z,75.10
2018-07-28T19:12:19.247Z,74.00
2018-07-28T19:14:52.997Z,73.50
2018-07-28T19:17:29.766Z,73.20
2018-07-28T19:22:39.497Z,73.90
2018-07-28T19:25:12.046Z,74.10
2018-07-28T19:27:50.893Z,74.30
2018-07-28T19:30:23.867Z,74.40
2018-07-28T19:32:56.696Z,74.60
2018-07-28T19:35:33.790Z,75.90
2018-07-28T19:38:07.480Z,77.10
2018-07-28T19:40:40.525Z,77.40
2018-07-28T19:43:14.262Z,77.40
2018-07-28T19:45:46.856Z,76.80
2018-07-28T19:48:19.785Z,77.20
2018-07-28T19:50:53.223Z,77.10
2018-07-28T19:53:27.034Z,76.30
2018-07-28T19:55:59.484Z,77.10
2018-07-28T19:58:32.585Z,76.10
2018-07-28T20:01:06.383Z,76.90
2018-07-28T20:03:38.894Z,77.90
2018-07-28T20:06:11.426Z,77.50
2018-07-28T20:08:43.336Z,76.50
2018-07-28T20:11:15.893Z,76.80
2018-07-28T20:13:47.893Z,76.70
2018-07-28T20:16:20.496Z,76.90
2018-07-28T20:18:53.860Z,78.70
2018-07-28T20:21:26.276Z,78.80
2018-07-28T20:23:58.721Z,79.10
2018-07-28T20:26:31.169Z,78.50
2018-07-28T20:29:03.846Z,78.60
2018-07-28T20:31:36.511Z,79.10
2018-07-28T20:34:09.007Z,79.50
2018-07-28T20:36:41.668Z,79.90
2018-07-28T20:39:14.356Z,80.40
2018-07-28T20:41:48.035Z,80.00
2018-07-28T20:44:20.504Z,80.70
2018-07-28T20:46:52.632Z,81.00
2018-07-28T20:49:24.819Z,80.70
2018-07-28T20:51:57.517Z,79.90
2018-07-28T20:54:30.213Z,80.10
2018-07-28T20:57:02.434Z,80.50
2018-07-28T20:59:34.582Z,80.60
2018-07-28T21:02:06.996Z,80.90
2018-07-28T21:04:41.199Z,81.10
2018-07-28T21:07:13.452Z,81.40
2018-07-28T21:09:46.724Z,81.60
2018-07-28T21:12:18.864Z,81.70
2018-07-28T21:14:50.911Z,81.50
2018-07-28T21:19:54.873Z,81.00
2018-07-28T21:24:58.506Z,81.60
2018-07-28T21:27:30.864Z,81.90
2018-07-28T21:30:03.152Z,82.00
2018-07-28T21:32:35.208Z,81.80
2018-07-28T21:35:07.846Z,81.70
2018-07-28T21:37:40.452Z,81.40
2018-07-28T21:40:12.567Z,81.10
2018-07-28T21:45:17.142Z,81.00
2018-07-28T21:47:49.823Z,80.80
2018-07-28T21:50:21.949Z,80.50
2018-07-28T21:52:54.166Z,80.60
2018-07-28T21:55:26.013Z,81.00
2018-07-28T21:57:58.116Z,80.50
2018-07-28T22:00:34.611Z,80.40
2018-07-28T22:03:06.843Z,80.30
2018-07-28T22:05:39.296Z,81.00
2018-07-28T22:08:11.342Z,81.00
2018-07-28T22:10:44.880Z,81.40
2018-07-28T22:18:20.269Z,82.60
2018-07-28T22:20:52.770Z,82.70
2018-07-28T22:23:25.868Z,82.90
2018-07-28T22:25:58.060Z,83.20
2018-07-28T22:28:30.670Z,83.20
2018-07-28T22:31:03.124Z,84.10
2018-07-28T22:33:35.253Z,83.30
2018-07-28T22:36:08.171Z,83.10
2018-07-28T22:38:40.930Z,82.90
2018-07-28T22:41:13.008Z,83.00
2018-07-28T22:43:45.455Z,83.00
2018-07-28T22:46:17.417Z,83.00
2018-07-28T22:48:49.864Z,82.90
2018-07-28T22:51:21.532Z,82.20
2018-07-28T22:53:54.408Z,82.00
2018-07-28T22:56:26.617Z,82.10
2018-07-28T22:58:58.600Z,81.90
2018-07-28T23:01:30.815Z,82.00
2018-07-28T23:04:04.222Z,82.10
2018-07-28T23:06:36.505Z,81.80
2018-07-28T23:09:11.745Z,81.70
2018-07-28T23:11:43.902Z,81.80
2018-07-28T23:14:16.001Z,82.00
2018-07-28T23:16:48.202Z,82.20
2018-07-28T23:19:20.074Z,83.40
2018-07-28T23:21:52.270Z,83.00
2018-07-28T23:24:24.794Z,83.20
2018-07-28T23:26:56.940Z,82.80
2018-07-28T23:29:29.123Z,83.20
2018-07-28T23:32:01.388Z,83.10
2018-07-28T23:34:33.864Z,83.40
2018-07-28T23:37:05.897Z,83.30
2018-07-28T23:39:37.971Z,84.00
2018-07-28T23:42:10.897Z,83.20
2018-07-28T23:44:42.991Z,83.40
2018-07-28T23:47:15.645Z,83.10
2018-07-28T23:52:19.388Z,84.00
2018-07-28T23:54:51.558Z,83.50
2018-07-28T23:59:55.976Z,83.20
